createdAt,value
2023-02-25T00:01:29.078Z,98357.00
2023-02-25T00:03:57.916Z,98347.56
2023-02-25T00:06:25.654Z,98348.81
2023-02-25T00:08:52.956Z,98353.13
2023-02-25T00:11:20.560Z,98356.38
2023-02-25T00:13:50.617Z,98356.16
2023-02-25T00:16:18.433Z,98354.91
2023-02-25T00:18:46.938Z,98355.75
2023-02-25T00:21:16.667Z,98352.47
2023-02-25T00:23:49.546Z,98352.22
2023-02-25T00:26:17.985Z,98359.16
2023-02-25T00:28:45.419Z,98353.19
2023-02-25T00:31:15.792Z,98355.22
2023-02-25T00:33:43.138Z,98346.22
2023-02-25T00:36:15.208Z,98356.06
2023-02-25T00:38:42.324Z,98343.56
2023-02-25T00:41:11.964Z,98348.25
2023-02-25T00:43:40.533Z,98354.75
2023-02-25T00:46:07.337Z,98363.75
2023-02-25T00:48:34.147Z,98360.47
2023-02-25T00:51:06.089Z,98362.66
2023-02-25T00:53:32.824Z,98363.47
2023-02-25T00:56:01.525Z,98360.88
2023-02-25T00:58:31.567Z,98364.09
2023-02-25T01:00:58.326Z,98370.25
2023-02-25T01:03:25.112Z,98364.94
2023-02-25T01:05:52.069Z,98361.25
2023-02-25T01:08:21.827Z,98375.63
2023-02-25T01:10:48.903Z,98373.53
2023-02-25T01:13:19.133Z,98364.09
2023-02-25T01:15:46.012Z,98364.31
2023-02-25T01:18:12.747Z,98371.03
2023-02-25T01:20:39.692Z,98371.47
2023-02-25T01:23:07.355Z,98381.91
2023-02-25T01:25:34.458Z,98390.91
2023-02-25T01:28:01.452Z,98395.78
2023-02-25T01:30:28.770Z,98405.44
2023-02-25T01:32:55.602Z,98399.72
2023-02-25T01:35:22.354Z,98397.63
2023-02-25T01:37:50.076Z,98395.41
2023-02-25T01:40:17.854Z,98395.41
2023-02-25T01:42:46.357Z,98385.97
2023-02-25T01:45:19.564Z,98378.56
2023-02-25T01:47:50.774Z,98386.16
2023-02-25T01:50:23.965Z,98374.31
2023-02-25T01:52:52.185Z,98385.78
2023-02-25T01:55:19.066Z,98378.63
2023-02-25T01:57:46.191Z,98384.75
2023-02-25T02:00:16.463Z,98384.19
2023-02-25T02:02:49.937Z,98382.94
2023-02-25T02:05:17.092Z,98387.03
2023-02-25T02:07:44.010Z,98392.34
2023-02-25T02:10:11.557Z,98373.91
2023-02-25T02:12:40.546Z,98378.03
2023-02-25T02:15:11.364Z,98380.47
2023-02-25T02:17:38.140Z,98379.69
2023-02-25T02:20:25.601Z,98377.03
2023-02-25T02:23:22.613Z,98373.13
2023-02-25T02:25:52.903Z,98381.28
2023-02-25T02:28:40.760Z,98384.59
2023-02-25T02:31:28.526Z,98396.09
2023-02-25T02:34:27.626Z,98380.09
2023-02-25T02:37:23.718Z,98390.78
2023-02-25T02:40:05.902Z,98382.97
2023-02-25T02:42:39.584Z,98386.22
2023-02-25T02:45:29.198Z,98390.78
2023-02-25T02:48:03.357Z,98391.22
2023-02-25T02:53:14.880Z,98393.03
2023-02-25T02:55:47.984Z,98391.78
2023-02-25T02:58:25.309Z,98398.13
2023-02-25T03:00:59.154Z,98409.22
2023-02-25T03:03:36.992Z,98397.31
2023-02-25T03:06:09.457Z,98406.75
2023-02-25T03:08:40.822Z,98413.72
2023-02-25T03:11:07.501Z,98415.31
2023-02-25T03:13:37.519Z,98409.16
2023-02-25T03:16:07.669Z,98411.69
2023-02-25T03:18:40.769Z,98408.78
2023-02-25T03:21:18.180Z,98417.44
2023-02-25T03:23:48.371Z,98421.31
2023-02-25T03:26:43.580Z,98416.56
2023-02-25T03:29:18.179Z,98414.50
2023-02-25T03:32:02.362Z,98410.78
2023-02-25T03:34:36.299Z,98407.69
2023-02-25T03:37:15.852Z,98393.09
2023-02-25T03:39:47.539Z,98387.31
2023-02-25T03:42:19.691Z,98397.72
2023-02-25T03:44:52.182Z,98388.50
2023-02-25T03:47:20.900Z,98406.31
2023-02-25T03:49:54.138Z,98401.41
2023-02-25T03:52:25.090Z,98419.19
2023-02-25T03:54:53.113Z,98412.28
2023-02-25T03:57:21.213Z,98418.38
2023-02-25T03:59:48.075Z,98418.78
2023-02-25T04:02:16.687Z,98428.41
2023-02-25T04:04:43.415Z,98423.66
2023-02-25T04:07:10.153Z,98434.75
2023-02-25T04:09:36.807Z,98441.47
2023-02-25T04:12:03.939Z,98445.16
2023-02-25T04:14:30.652Z,98449.06
2023-02-25T04:16:57.372Z,98456.41
2023-02-25T04:19:24.222Z,98475.47
2023-02-25T04:21:50.959Z,98458.88
2023-02-25T04:24:17.834Z,98466.69
2023-02-25T04:26:44.593Z,98455.41
2023-02-25T04:29:11.388Z,98462.50
2023-02-25T04:31:38.344Z,98468.94
2023-02-25T04:34:05.316Z,98466.25
2023-02-25T04:36:36.272Z,98468.31
2023-02-25T04:39:05.707Z,98456.59
2023-02-25T04:41:35.384Z,98460.91
2023-02-25T04:44:05.511Z,98459.75
2023-02-25T04:46:37.643Z,98459.09
2023-02-25T04:49:05.172Z,98456.03
2023-02-25T04:51:31.984Z,98465.44
2023-02-25T04:53:59.138Z,98465.88
2023-02-25T04:56:26.659Z,98463.59
2023-02-25T04:58:54.382Z,98481.47
2023-02-25T05:01:21.263Z,98472.09
2023-02-25T05:03:48.280Z,98483.75
2023-02-25T05:06:15.445Z,98480.44
2023-02-25T05:08:42.218Z,98473.69
2023-02-25T05:11:08.953Z,98480.44
2023-02-25T05:13:35.669Z,98478.97
2023-02-25T05:16:12.460Z,98494.13
2023-02-25T05:18:39.731Z,98485.34
2023-02-25T05:21:12.330Z,98481.22
2023-02-25T05:23:43.652Z,98486.97
2023-02-25T05:26:11.417Z,98476.06
2023-02-25T05:31:09.996Z,98477.91
2023-02-25T05:33:37.818Z,98483.66
2023-02-25T05:36:09.213Z,98491.22
2023-02-25T05:38:37.059Z,98477.69
2023-02-25T05:41:06.615Z,98483.50
2023-02-25T05:43:33.703Z,98482.63
2023-02-25T05:46:01.789Z,98467.44
2023-02-25T05:48:29.199Z,98475.41
2023-02-25T05:51:04.365Z,98469.84
2023-02-25T05:53:31.766Z,98463.25
2023-02-25T05:55:58.588Z,98462.00
2023-02-25T05:58:26.642Z,98448.88
2023-02-25T06:00:54.302Z,98459.91
2023-02-25T06:03:22.143Z,98462.75
2023-02-25T06:05:48.936Z,98465.63
2023-02-25T06:08:16.317Z,98461.72
2023-02-25T06:10:43.052Z,98466.84
2023-02-25T06:13:11.419Z,98463.09
2023-02-25T06:15:40.622Z,98469.03
2023-02-25T06:18:08.629Z,98483.16
2023-02-25T06:20:35.846Z,98467.25
2023-02-25T06:23:03.773Z,98480.31
2023-02-25T06:25:31.507Z,98486.06
2023-02-25T06:28:00.688Z,98500.94
2023-02-25T06:30:30.070Z,98511.31
2023-02-25T06:32:57.766Z,98524.69
2023-02-25T06:35:25.090Z,98507.09
2023-02-25T06:37:57.082Z,98527.59
2023-02-25T06:40:23.897Z,98516.59
2023-02-25T06:42:51.255Z,98516.81
2023-02-25T06:45:18.514Z,98524.03
2023-02-25T06:47:45.264Z,98530.38
2023-02-25T06:50:12.561Z,98533.41
2023-02-25T06:55:07.110Z,98534.75
2023-02-25T06:57:34.378Z,98536.91
2023-02-25T07:00:01.216Z,98545.50
2023-02-25T07:02:27.915Z,98551.03
2023-02-25T07:08:07.207Z,98560.44
2023-02-25T07:10:35.834Z,98554.16
2023-02-25T07:13:02.688Z,98553.47
2023-02-25T07:15:29.546Z,98548.59
2023-02-25T07:17:56.402Z,98569.06
2023-02-25T07:20:23.129Z,98566.13
2023-02-25T07:22:49.803Z,98565.38
2023-02-25T07:25:16.546Z,98562.09
2023-02-25T07:27:44.941Z,98567.06
2023-02-25T07:30:13.315Z,98575.78
2023-02-25T07:32:41.201Z,98564.09
2023-02-25T07:35:09.001Z,98569.75
2023-02-25T07:37:35.762Z,98567.31
2023-02-25T07:40:02.594Z,98574.75
2023-02-25T07:42:30.037Z,98568.50
2023-02-25T07:44:56.720Z,98568.59
2023-02-25T07:47:23.463Z,98571.25
2023-02-25T07:49:56.220Z,98589.06
2023-02-25T07:52:23.030Z,98575.56
2023-02-25T07:54:49.819Z,98578.88
2023-02-25T07:57:16.531Z,98571.50
2023-02-25T07:59:43.186Z,98594.03
2023-02-25T08:02:11.855Z,98582.94
2023-02-25T08:07:06.029Z,98580.91
2023-02-25T08:09:33.428Z,98599.31
2023-02-25T08:12:00.484Z,98589.50
2023-02-25T08:14:27.829Z,98579.16
2023-02-25T08:16:58.054Z,98584.75
2023-02-25T08:19:24.823Z,98588.28
2023-02-25T08:21:51.604Z,98578.19
2023-02-25T08:24:20.804Z,98577.06
2023-02-25T08:26:48.216Z,98568.75
2023-02-25T08:29:15.519Z,98578.06
2023-02-25T08:31:42.549Z,98578.00
2023-02-25T08:34:09.727Z,98569.03
2023-02-25T08:36:38.024Z,98572.84
2023-02-25T08:39:04.787Z,98578.69
2023-02-25T08:41:32.257Z,98574.59
2023-02-25T08:44:01.693Z,98572.22
2023-02-25T08:46:30.377Z,98581.97
2023-02-25T08:48:58.486Z,98574.84
2023-02-25T08:51:35.072Z,98582.03
2023-02-25T08:54:04.271Z,98582.88
2023-02-25T08:56:31.144Z,98587.84
2023-02-25T08:58:57.894Z,98567.31
2023-02-25T09:01:25.619Z,98570.41
2023-02-25T09:03:53.306Z,98574.13
2023-02-25T09:06:25.246Z,98570.22
2023-02-25T09:08:52.695Z,98578.84
2023-02-25T09:11:20.808Z,98588.25
2023-02-25T09:13:48.018Z,98580.06
2023-02-25T09:16:17.767Z,98583.31
2023-02-25T09:18:49.386Z,98572.00
2023-02-25T09:21:16.520Z,98577.06
2023-02-25T09:23:44.049Z,98580.63
2023-02-25T09:26:11.223Z,98589.06
2023-02-25T09:28:37.975Z,98572.16
2023-02-25T09:31:05.862Z,98577.19
2023-02-25T09:33:34.112Z,98573.06
2023-02-25T09:36:20.750Z,98569.03
2023-02-25T09:38:50.111Z,98588.69
2023-02-25T09:41:31.158Z,98579.84
2023-02-25T09:44:20.489Z,98587.81
2023-02-25T09:47:05.759Z,98582.78
2023-02-25T09:52:41.305Z,98578.31
2023-02-25T09:55:18.184Z,98583.50
2023-02-25T09:58:03.329Z,98584.31
2023-02-25T10:00:34.094Z,98584.38
2023-02-25T10:03:36.705Z,98579.88
2023-02-25T10:06:30.347Z,98577.91
2023-02-25T10:09:03.245Z,98579.53
2023-02-25T10:11:40.796Z,98578.34
2023-02-25T10:14:23.311Z,98595.19
2023-02-25T10:17:03.643Z,98578.69
2023-02-25T10:22:20.145Z,98577.06
2023-02-25T10:24:50.702Z,98570.88
2023-02-25T10:27:26.279Z,98568.81
2023-02-25T10:30:00.076Z,98575.25
2023-02-25T10:32:31.814Z,98573.84
2023-02-25T10:35:02.216Z,98586.56
2023-02-25T10:37:33.974Z,98575.66
2023-02-25T10:40:04.413Z,98585.38
2023-02-25T10:42:31.987Z,98587.03
2023-02-25T10:45:08.339Z,98603.00
2023-02-25T10:50:23.110Z,98585.81
2023-02-25T10:52:59.756Z,98582.69
2023-02-25T10:55:34.073Z,98584.69
2023-02-25T10:58:01.200Z,98580.47
2023-02-25T11:00:32.986Z,98571.16
2023-02-25T11:03:01.952Z,98578.81
2023-02-25T11:05:45.302Z,98568.13
2023-02-25T11:08:30.393Z,98572.13
2023-02-25T11:11:20.161Z,98556.91
2023-02-25T11:14:01.960Z,98556.41
2023-02-25T11:16:31.564Z,98552.69
2023-02-25T11:19:01.148Z,98547.50
2023-02-25T11:21:36.575Z,98548.41
2023-02-25T11:24:13.096Z,98554.66
2023-02-25T11:26:41.418Z,98553.19
2023-02-25T11:29:21.317Z,98557.47
2023-02-25T11:31:59.990Z,98546.56
2023-02-25T11:34:31.475Z,98552.88
2023-02-25T11:40:01.691Z,98580.28
2023-02-25T11:42:30.456Z,98574.00
2023-02-25T11:45:04.796Z,98568.06
2023-02-25T11:47:34.894Z,98569.78
2023-02-25T11:50:30.013Z,98562.81
2023-02-25T11:53:04.877Z,98565.69
2023-02-25T11:55:40.779Z,98566.38
2023-02-25T11:58:16.364Z,98562.94
2023-02-25T12:00:47.487Z,98571.00
2023-02-25T12:03:35.887Z,98579.41
2023-02-25T12:06:29.051Z,98577.69
2023-02-25T12:09:40.941Z,98591.72
2023-02-25T12:12:41.612Z,98588.59
2023-02-25T12:15:27.163Z,98598.63
2023-02-25T12:18:16.683Z,98591.03
2023-02-25T12:21:02.228Z,98591.47
2023-02-25T12:23:38.220Z,98602.84
2023-02-25T12:26:08.748Z,98600.56
2023-02-25T12:31:19.205Z,98593.66
2023-02-25T12:33:54.874Z,98598.25
2023-02-25T12:36:40.925Z,98598.91
2023-02-25T12:39:07.680Z,98594.03
2023-02-25T12:41:40.972Z,98593.03
2023-02-25T12:44:38.428Z,98600.69
2023-02-25T12:47:17.828Z,98605.72
2023-02-25T12:50:13.272Z,98593.81
2023-02-25T12:52:40.949Z,98603.47
2023-02-25T12:55:25.952Z,98607.91
2023-02-25T12:57:59.027Z,98615.09
2023-02-25T13:00:39.840Z,98617.94
2023-02-25T13:03:35.368Z,98611.34
2023-02-25T13:06:29.793Z,98605.59
2023-02-25T13:09:32.024Z,98604.59
2023-02-25T13:12:40.795Z,98609.44
2023-02-25T13:15:36.578Z,98622.63
2023-02-25T13:18:24.241Z,98617.00
2023-02-25T13:21:05.630Z,98618.22
2023-02-25T13:23:41.076Z,98622.06
2023-02-25T13:26:40.816Z,98625.41
2023-02-25T13:29:21.115Z,98624.31
2023-02-25T13:32:09.881Z,98616.50
2023-02-25T13:34:36.537Z,98621.41
2023-02-25T13:37:40.863Z,98613.16
2023-02-25T13:40:37.521Z,98600.56
2023-02-25T13:43:22.429Z,98590.53
2023-02-25T13:46:05.456Z,98582.56
2023-02-25T13:48:41.354Z,98580.81
2023-02-25T13:51:13.946Z,98575.19
2023-02-25T13:54:02.563Z,98576.09
2023-02-25T13:56:39.975Z,98577.19
2023-02-25T14:02:34.544Z,98575.63
2023-02-25T14:05:30.379Z,98585.94
2023-02-25T14:08:15.708Z,98589.44
2023-02-25T14:10:54.650Z,98600.19
2023-02-25T14:13:40.905Z,98595.44
2023-02-25T14:16:08.511Z,98599.16
2023-02-25T14:18:35.196Z,98597.44
2023-02-25T14:21:20.398Z,98600.81
2023-02-25T14:24:00.425Z,98603.09
2023-02-25T14:26:41.859Z,98607.44
2023-02-25T14:29:30.105Z,98604.72
2023-02-25T14:32:21.992Z,98617.88
2023-02-25T14:34:56.399Z,98617.84
2023-02-25T14:37:37.787Z,98625.91
2023-02-25T14:40:07.638Z,98639.75
2023-02-25T14:42:39.923Z,98639.78
2023-02-25T14:45:09.779Z,98638.59
2023-02-25T14:47:40.876Z,98651.66
2023-02-25T14:50:18.976Z,98653.03
2023-02-25T14:53:07.148Z,98663.31
2023-02-25T14:55:41.181Z,98666.31
2023-02-25T14:58:35.782Z,98674.78
2023-02-25T15:01:18.294Z,98676.06
2023-02-25T15:04:19.614Z,98674.09
2023-02-25T15:07:08.036Z,98680.28
2023-02-25T15:09:40.968Z,98685.34
2023-02-25T15:12:25.904Z,98681.38
2023-02-25T15:15:04.770Z,98688.09
2023-02-25T15:17:40.878Z,98687.06
2023-02-25T15:20:41.084Z,98690.69
2023-02-25T15:23:17.042Z,98690.31
2023-02-25T15:26:04.466Z,98690.00
2023-02-25T15:28:31.134Z,98686.31
2023-02-25T15:31:01.137Z,98695.56
2023-02-25T15:33:34.899Z,98707.53
2023-02-25T15:36:13.822Z,98712.84
2023-02-25T15:38:46.875Z,98713.84
2023-02-25T15:41:38.410Z,98709.38
2023-02-25T15:44:11.460Z,98719.22
2023-02-25T15:46:41.296Z,98719.09
2023-02-25T15:49:10.740Z,98712.66
2023-02-25T15:51:40.134Z,98720.94
2023-02-25T15:54:09.242Z,98728.88
2023-02-25T15:56:41.162Z,98715.91
2023-02-25T15:59:08.108Z,98721.97
2023-02-25T16:01:41.016Z,98729.34
2023-02-25T16:04:42.353Z,98733.69
2023-02-25T16:07:14.686Z,98742.03
2023-02-25T16:09:49.721Z,98750.38
2023-02-25T16:12:17.295Z,98754.44
2023-02-25T16:14:44.868Z,98757.81
2023-02-25T16:17:20.339Z,98753.78
2023-02-25T16:19:53.752Z,98761.88
2023-02-25T16:22:24.058Z,98766.66
2023-02-25T16:24:56.560Z,98776.94
2023-02-25T16:30:16.342Z,98775.09
2023-02-25T16:33:13.968Z,98795.28
2023-02-25T16:36:22.278Z,98806.44
2023-02-25T16:39:05.880Z,98801.78
2023-02-25T16:41:41.187Z,98806.63
2023-02-25T16:44:11.605Z,98812.31
2023-02-25T16:46:41.361Z,98813.78
2023-02-25T16:49:18.321Z,98813.19
2023-02-25T16:51:45.924Z,98817.91
2023-02-25T16:54:23.369Z,98818.66
2023-02-25T16:56:55.731Z,98821.53
2023-02-25T16:59:25.720Z,98824.06
2023-02-25T17:02:01.431Z,98833.66
2023-02-25T17:04:31.607Z,98837.78
2023-02-25T17:07:19.566Z,98852.16
2023-02-25T17:09:52.480Z,98853.06
2023-02-25T17:12:41.031Z,98859.47
2023-02-25T17:15:13.929Z,98861.38
2023-02-25T17:17:44.680Z,98857.03
2023-02-25T17:20:29.864Z,98863.03
2023-02-25T17:23:03.010Z,98871.38
2023-02-25T17:25:37.493Z,98878.03
2023-02-25T17:28:06.736Z,98876.53
2023-02-25T17:30:41.394Z,98877.69
2023-02-25T17:33:28.701Z,98884.34
2023-02-25T17:36:10.067Z,98893.75
2023-02-25T17:38:39.002Z,98903.81
2023-02-25T17:41:05.650Z,98903.88
2023-02-25T17:46:29.068Z,98917.72
2023-02-25T17:49:06.220Z,98911.66
2023-02-25T17:51:37.326Z,98923.53
2023-02-25T17:54:20.932Z,98930.97
2023-02-25T17:57:05.792Z,98932.47
2023-02-25T18:02:35.750Z,98939.53
2023-02-25T18:05:21.754Z,98937.03
2023-02-25T18:07:57.930Z,98940.84
2023-02-25T18:10:33.709Z,98948.16
2023-02-25T18:13:02.757Z,98942.16
2023-02-25T18:15:36.102Z,98949.47
2023-02-25T18:18:05.892Z,98960.41
2023-02-25T18:20:42.473Z,98962.00
2023-02-25T18:23:15.976Z,98954.22
2023-02-25T18:25:45.567Z,98971.31
2023-02-25T18:28:15.979Z,98969.97
2023-02-25T18:30:45.110Z,98967.34
2023-02-25T18:33:11.954Z,98969.31
2023-02-25T18:35:41.116Z,98979.59
2023-02-25T18:38:17.265Z,98977.94
2023-02-25T18:40:44.868Z,98979.09
2023-02-25T18:43:19.878Z,98978.50
2023-02-25T18:45:47.339Z,98984.59
2023-02-25T18:48:14.238Z,98981.97
2023-02-25T18:50:44.670Z,98981.16
2023-02-25T18:53:17.258Z,98993.28
2023-02-25T18:55:44.155Z,98990.91
2023-02-25T18:58:15.729Z,99012.84
2023-02-25T19:00:44.620Z,99016.50
2023-02-25T19:03:15.955Z,99025.25
2023-02-25T19:05:42.696Z,99026.78
2023-02-25T19:08:15.136Z,99029.09
2023-02-25T19:10:43.913Z,99027.94
2023-02-25T19:13:16.455Z,99030.44
2023-02-25T19:15:43.284Z,99037.75
2023-02-25T19:18:14.699Z,99040.72
2023-02-25T19:20:44.149Z,99054.66
2023-02-25T19:23:13.677Z,99064.31
2023-02-25T19:25:41.555Z,99058.66
2023-02-25T19:28:09.014Z,99055.69
2023-02-25T19:30:41.341Z,99057.03
2023-02-25T19:33:10.031Z,99051.06
2023-02-25T19:38:08.670Z,99062.00
2023-02-25T19:40:36.630Z,99059.53
2023-02-25T19:43:05.123Z,99073.44
2023-02-25T19:45:32.649Z,99079.88
2023-02-25T19:48:00.307Z,99083.34
2023-02-25T19:50:28.101Z,99084.50
2023-02-25T19:52:56.089Z,99085.66
2023-02-25T19:55:23.108Z,99093.47
2023-02-25T19:57:49.869Z,99098.75
2023-02-25T20:00:26.665Z,99102.75
2023-02-25T20:02:54.345Z,99104.75
2023-02-25T20:05:22.237Z,99103.41
2023-02-25T20:07:50.460Z,99098.75
2023-02-25T20:10:17.746Z,99102.38
2023-02-25T20:12:46.185Z,99101.88
2023-02-25T20:15:14.815Z,99099.38
2023-02-25T20:17:43.718Z,99112.59
2023-02-25T20:20:11.724Z,99105.16
2023-02-25T20:22:41.096Z,99103.31
2023-02-25T20:25:10.146Z,99110.28
2023-02-25T20:30:07.175Z,99114.19
2023-02-25T20:32:35.554Z,99112.72
2023-02-25T20:35:03.048Z,99112.88
2023-02-25T20:37:37.490Z,99124.63
2023-02-25T20:40:08.270Z,99129.72
2023-02-25T20:42:35.499Z,99137.84
2023-02-25T20:45:02.757Z,99127.91
2023-02-25T20:47:35.144Z,99135.69
2023-02-25T20:50:02.126Z,99144.63
2023-02-25T20:52:32.357Z,99144.69
2023-02-25T20:54:59.324Z,99150.66
2023-02-25T20:57:27.148Z,99154.81
2023-02-25T20:59:54.542Z,99157.25
2023-02-25T21:02:22.755Z,99154.91
2023-02-25T21:04:50.081Z,99166.34
2023-02-25T21:07:17.521Z,99165.19
2023-02-25T21:09:44.465Z,99161.19
2023-02-25T21:12:11.686Z,99165.50
2023-02-25T21:14:38.639Z,99160.31
2023-02-25T21:17:09.682Z,99166.81
2023-02-25T21:19:38.957Z,99169.81
2023-02-25T21:22:06.621Z,99172.00
2023-02-25T21:24:34.421Z,99175.41
2023-02-25T21:27:01.628Z,99172.88
2023-02-25T21:29:28.850Z,99180.97
2023-02-25T21:31:56.080Z,99186.56
2023-02-25T21:34:23.006Z,99179.63
2023-02-25T21:36:49.890Z,99182.88
2023-02-25T21:39:16.932Z,99180.88
2023-02-25T21:41:44.934Z,99177.56
2023-02-25T21:44:12.465Z,99177.13
2023-02-25T21:49:06.424Z,99180.22
2023-02-25T21:51:36.224Z,99170.16
2023-02-25T21:54:03.915Z,99173.78
2023-02-25T21:56:31.287Z,99177.44
2023-02-25T21:59:01.121Z,99181.59
2023-02-25T22:01:33.800Z,99185.75
2023-02-25T22:04:00.687Z,99189.38
2023-02-25T22:06:28.214Z,99194.34
2023-02-25T22:08:56.752Z,99192.84
2023-02-25T22:11:26.440Z,99198.72
2023-02-25T22:13:53.302Z,99196.22
2023-02-25T22:16:22.957Z,99194.47
2023-02-25T22:18:51.139Z,99194.47
2023-02-25T22:21:23.862Z,99194.72
2023-02-25T22:23:52.870Z,99202.88
2023-02-25T22:26:25.642Z,99199.00
2023-02-25T22:28:57.553Z,99199.56
2023-02-25T22:31:25.226Z,99204.94
2023-02-25T22:33:52.870Z,99188.44
2023-02-25T22:36:20.368Z,99197.13
2023-02-25T22:38:48.907Z,99197.28
2023-02-25T22:41:21.714Z,99205.97
2023-02-25T22:43:49.974Z,99215.25
2023-02-25T22:46:31.799Z,99210.13
2023-02-25T22:48:59.429Z,99215.03
2023-02-25T22:51:29.045Z,99218.53
2023-02-25T22:53:56.903Z,99220.19
2023-02-25T22:56:24.483Z,99222.31
2023-02-25T22:58:51.681Z,99226.31
2023-02-25T23:01:20.789Z,99224.66
2023-02-25T23:03:48.541Z,99226.00
2023-02-25T23:06:17.127Z,99226.00
2023-02-25T23:08:46.549Z,99223.06
2023-02-25T23:11:19.581Z,99227.06
2023-02-25T23:13:48.867Z,99233.91
2023-02-25T23:16:18.378Z,99233.09
2023-02-25T23:18:47.018Z,99233.56
2023-02-25T23:21:19.812Z,99234.81
2023-02-25T23:23:48.877Z,99232.03
2023-02-25T23:26:20.186Z,99244.63
2023-02-25T23:28:47.919Z,99244.63
2023-02-25T23:31:26.218Z,99239.44
2023-02-25T23:34:02.287Z,99246.41
2023-02-25T23:36:29.822Z,99241.94
2023-02-25T23:38:58.329Z,99250.44
2023-02-25T23:41:25.989Z,99256.78
2023-02-25T23:43:58.750Z,99256.63
2023-02-25T23:46:27.694Z,99253.31
2023-02-25T23:49:00.111Z,99258.88
2023-02-25T23:51:28.998Z,99260.75
2023-02-25T23:54:01.041Z,99257.69
2023-02-25T23:56:29.254Z,99265.84
2023-02-25T23:58:56.411Z,99265.53
